sensor_id;sensor_type;location;lat;lon;timestamp;pressure;altitude;pressure_sealevel;temperature;humidity
74708;BME280;63360;50.104;8.074;2023-01-19T00:00:26;95928.25;;;-4.06;100.00
74708;BME280;63360;50.104;8.074;2023-01-19T00:02:52;95932.31;;;-4.10;100.00
74708;BME280;63360;50.104;8.074;2023-01-19T00:05:20;95929.47;;;-4.14;100.00
74708;BME280;63360;50.104;8.074;2023-01-19T00:07:47;95944.56;;;-4.02;100.00
74708;BME280;63360;50.104;8.074;2023-01-19T00:10:13;95928.47;;;-4.13;100.00
74708;BME280;63360;50.104;8.074;2023-01-19T00:12:40;95936.66;;;-4.06;100.00
74708;BME280;63360;50.104;8.074;2023-01-19T00:15:06;95929.31;;;-4.02;100.00
74708;BME280;63360;50.104;8.074;2023-01-19T00:17:33;95929.31;;;-4.02;100.00
74708;BME280;63360;50.104;8.074;2023-01-19T00:19:59;95939.59;;;-3.87;100.00
74708;BME280;63360;50.104;8.074;2023-01-19T00:22:26;95935.72;;;-3.95;100.00
74708;BME280;63360;50.104;8.074;2023-01-19T00:24:52;95937.97;;;-3.98;100.00
74708;BME280;63360;50.104;8.074;2023-01-19T00:27:19;95944.69;;;-3.82;100.00
74708;BME280;63360;50.104;8.074;2023-01-19T00:29:45;95941.88;;;-3.86;100.00
74708;BME280;63360;50.104;8.074;2023-01-19T00:32:11;95944.13;;;-3.94;100.00
74708;BME280;63360;50.104;8.074;2023-01-19T00:34:38;95956.63;;;-3.83;100.00
74708;BME280;63360;50.104;8.074;2023-01-19T00:37:08;95955.09;;;-3.89;100.00
74708;BME280;63360;50.104;8.074;2023-01-19T00:39:35;95962.13;;;-3.96;100.00
74708;BME280;63360;50.104;8.074;2023-01-19T00:42:01;95946.78;;;-4.11;100.00
74708;BME280;63360;50.104;8.074;2023-01-19T00:44:46;95964.63;;;-4.01;100.00
74708;BME280;63360;50.104;8.074;2023-01-19T00:47:13;95973.00;;;-4.00;100.00
74708;BME280;63360;50.104;8.074;2023-01-19T00:49:39;95969.53;;;-3.89;100.00
74708;BME280;63360;50.104;8.074;2023-01-19T00:52:06;95963.16;;;-3.97;100.00
74708;BME280;63360;50.104;8.074;2023-01-19T00:54:32;95958.88;;;-3.91;100.00
74708;BME280;63360;50.104;8.074;2023-01-19T00:56:58;95976.47;;;-3.80;100.00
74708;BME280;63360;50.104;8.074;2023-01-19T00:59:25;95952.75;;;-3.90;100.00
74708;BME280;63360;50.104;8.074;2023-01-19T01:01:51;95958.41;;;-3.83;100.00
74708;BME280;63360;50.104;8.074;2023-01-19T01:04:18;95965.50;;;-3.85;100.00
74708;BME280;63360;50.104;8.074;2023-01-19T01:06:44;95967.59;;;-3.77;100.00
74708;BME280;63360;50.104;8.074;2023-01-19T01:09:11;95969.13;;;-3.76;100.00
74708;BME280;63360;50.104;8.074;2023-01-19T01:11:41;95972.72;;;-3.72;100.00
74708;BME280;63360;50.104;8.074;2023-01-19T01:14:12;95976.47;;;-3.80;100.00
74708;BME280;63360;50.104;8.074;2023-01-19T01:16:39;95978.50;;;-3.82;100.00
74708;BME280;63360;50.104;8.074;2023-01-19T01:19:06;95983.53;;;-3.87;100.00
74708;BME280;63360;50.104;8.074;2023-01-19T01:21:32;95989.38;;;-3.86;100.00
74708;BME280;63360;50.104;8.074;2023-01-19T01:24:00;95979.38;;;-3.98;100.00
74708;BME280;63360;50.104;8.074;2023-01-19T01:26:27;95983.94;;;-4.00;100.00
74708;BME280;63360;50.104;8.074;2023-01-19T01:28:53;95979.66;;;-3.94;100.00
74708;BME280;63360;50.104;8.074;2023-01-19T01:31:19;95992.38;;;-3.94;100.00
74708;BME280;63360;50.104;8.074;2023-01-19T01:33:46;95992.41;;;-3.89;100.00
74708;BME280;63360;50.104;8.074;2023-01-19T01:36:13;95987.84;;;-3.87;100.00
74708;BME280;63360;50.104;8.074;2023-01-19T01:38:40;96003.38;;;-3.84;100.00
74708;BME280;63360;50.104;8.074;2023-01-19T01:41:07;96009.97;;;-3.83;100.00
74708;BME280;63360;50.104;8.074;2023-01-19T01:43:52;96007.16;;;-3.86;100.00
74708;BME280;63360;50.104;8.074;2023-01-19T01:46:20;96011.69;;;-3.88;100.00
74708;BME280;63360;50.104;8.074;2023-01-19T01:51:28;96022.00;;;-3.73;100.00
74708;BME280;63360;50.104;8.074;2023-01-19T01:56:38;96020.69;;;-3.44;100.00
74708;BME280;63360;50.104;8.074;2023-01-19T01:59:14;96022.00;;;-3.41;100.00
74708;BME280;63360;50.104;8.074;2023-01-19T02:02:00;96024.84;;;-3.33;100.00
74708;BME280;63360;50.104;8.074;2023-01-19T02:04:52;96022.13;;;-3.16;100.00
74708;BME280;63360;50.104;8.074;2023-01-19T02:07:28;96021.44;;;-3.07;100.00
74708;BME280;63360;50.104;8.074;2023-01-19T02:10:16;95993.47;;;-3.07;100.00
74708;BME280;63360;50.104;8.074;2023-01-19T02:13:02;96001.16;;;-2.91;100.00
74708;BME280;63360;50.104;8.074;2023-01-19T02:15:48;96006.06;;;-2.80;100.00
74708;BME280;63360;50.104;8.074;2023-01-19T02:18:15;95996.91;;;-2.76;100.00
74708;BME280;63360;50.104;8.074;2023-01-19T02:21:20;96005.09;;;-2.64;100.00
74708;BME280;63360;50.104;8.074;2023-01-19T02:23:57;95984.97;;;-2.65;100.00
74708;BME280;63360;50.104;8.074;2023-01-19T02:26:28;95992.16;;;-2.47;100.00
74708;BME280;63360;50.104;8.074;2023-01-19T02:29:02;96003.38;;;-2.43;100.00
74708;BME280;63360;50.104;8.074;2023-01-19T02:31:30;95999.28;;;-2.39;100.00
74708;BME280;63360;50.104;8.074;2023-01-19T02:33:58;95998.03;;;-2.36;100.00
74708;BME280;63360;50.104;8.074;2023-01-19T02:36:29;96000.59;;;-2.31;100.00
74708;BME280;63360;50.104;8.074;2023-01-19T02:38:57;95981.75;;;-2.35;100.00
74708;BME280;63360;50.104;8.074;2023-01-19T02:41:28;95994.50;;;-2.25;100.00
74708;BME280;63360;50.104;8.074;2023-01-19T02:43:57;95985.34;;;-2.21;100.00
74708;BME280;63360;50.104;8.074;2023-01-19T02:46:24;95985.59;;;-2.18;100.00
74708;BME280;63360;50.104;8.074;2023-01-19T02:48:50;95985.34;;;-2.16;100.00
74708;BME280;63360;50.104;8.074;2023-01-19T02:51:22;95975.41;;;-2.13;100.00
74708;BME280;63360;50.104;8.074;2023-01-19T02:54:12;95989.94;;;-1.93;100.00
74708;BME280;63360;50.104;8.074;2023-01-19T02:59:43;95992.50;;;-2.03;100.00
74708;BME280;63360;50.104;8.074;2023-01-19T03:02:29;95982.53;;;-2.05;100.00
74708;BME280;63360;50.104;8.074;2023-01-19T03:05:11;95987.13;;;-2.02;100.00
74708;BME280;63360;50.104;8.074;2023-01-19T03:13:25;95987.91;;;-2.01;100.00
74708;BME280;63360;50.104;8.074;2023-01-19T03:15:57;95964.19;;;-2.22;100.00
74708;BME280;63360;50.104;8.074;2023-01-19T03:18:28;95989.19;;;-2.09;100.00
74708;BME280;63360;50.104;8.074;2023-01-19T03:20:59;95973.59;;;-2.32;100.00
74708;BME280;63360;50.104;8.074;2023-01-19T03:23:30;95976.88;;;-2.47;100.00
74708;BME280;63360;50.104;8.074;2023-01-19T03:25:58;95979.41;;;-2.52;100.00
74708;BME280;63360;50.104;8.074;2023-01-19T03:28:27;95987.31;;;-2.49;100.00
74708;BME280;63360;50.104;8.074;2023-01-19T03:31:03;95970.75;;;-2.51;100.00
74708;BME280;63360;50.104;8.074;2023-01-19T03:33:32;95985.28;;;-2.47;100.00
74708;BME280;63360;50.104;8.074;2023-01-19T03:36:04;95980.69;;;-2.55;100.00
74708;BME280;63360;50.104;8.074;2023-01-19T03:38:36;95983.22;;;-2.50;100.00
74708;BME280;63360;50.104;8.074;2023-01-19T03:41:07;95975.88;;;-2.46;100.00
74708;BME280;63360;50.104;8.074;2023-01-19T03:43:37;95966.44;;;-2.56;100.00
74708;BME280;63360;50.104;8.074;2023-01-19T03:46:05;95982.25;;;-2.38;100.00
74708;BME280;63360;50.104;8.074;2023-01-19T03:48:33;95988.63;;;-2.36;100.00
74708;BME280;63360;50.104;8.074;2023-01-19T03:51:04;95988.34;;;-2.39;100.00
74708;BME280;63360;50.104;8.074;2023-01-19T03:53:31;95974.06;;;-2.56;100.00
74708;BME280;63360;50.104;8.074;2023-01-19T03:55:58;95987.03;;;-2.52;100.00
74708;BME280;63360;50.104;8.074;2023-01-19T03:58:24;95985.25;;;-2.62;100.00
74708;BME280;63360;50.104;8.074;2023-01-19T04:00:51;95986.25;;;-2.63;100.00
74708;BME280;63360;50.104;8.074;2023-01-19T04:03:17;95992.63;;;-2.55;100.00
74708;BME280;63360;50.104;8.074;2023-01-19T04:05:44;95994.94;;;-2.54;100.00
74708;BME280;63360;50.104;8.074;2023-01-19T04:08:11;95980.16;;;-2.62;100.00
74708;BME280;63360;50.104;8.074;2023-01-19T04:10:38;95993.69;;;-2.51;100.00
74708;BME280;63360;50.104;8.074;2023-01-19T04:13:04;95988.81;;;-2.53;100.00
74708;BME280;63360;50.104;8.074;2023-01-19T04:15:31;95997.72;;;-2.50;100.00
74708;BME280;63360;50.104;8.074;2023-01-19T04:17:59;95991.41;;;-2.48;100.00
74708;BME280;63360;50.104;8.074;2023-01-19T04:20:26;95992.66;;;-2.50;100.00
74708;BME280;63360;50.104;8.074;2023-01-19T04:22:54;95990.63;;;-2.53;100.00
74708;BME280;63360;50.104;8.074;2023-01-19T04:25:24;95992.41;;;-2.49;100.00
74708;BME280;63360;50.104;8.074;2023-01-19T04:27:51;95993.94;;;-2.48;100.00
74708;BME280;63360;50.104;8.074;2023-01-19T04:30:18;96000.03;;;-2.49;100.00
74708;BME280;63360;50.104;8.074;2023-01-19T04:32:45;96001.59;;;-2.42;100.00
74708;BME280;63360;50.104;8.074;2023-01-19T04:35:12;95976.63;;;-2.56;100.00
74708;BME280;63360;50.104;8.074;2023-01-19T04:37:38;95990.88;;;-2.45;100.00
74708;BME280;63360;50.104;8.074;2023-01-19T04:40:05;95993.94;;;-2.48;100.00
74708;BME280;63360;50.104;8.074;2023-01-19T04:42:32;95996.75;;;-2.39;100.00
74708;BME280;63360;50.104;8.074;2023-01-19T04:44:58;95998.53;;;-2.39;100.00
74708;BME280;63360;50.104;8.074;2023-01-19T04:47:25;95996.50;;;-2.37;100.00
74708;BME280;63360;50.104;8.074;2023-01-19T04:49:51;95995.47;;;-2.47;100.00
74708;BME280;63360;50.104;8.074;2023-01-19T04:52:17;95995.97;;;-2.39;100.00
74708;BME280;63360;50.104;8.074;2023-01-19T04:54:44;95999.06;;;-2.42;100.00
74708;BME280;63360;50.104;8.074;2023-01-19T04:57:11;96001.06;;;-2.39;100.00
74708;BME280;63360;50.104;8.074;2023-01-19T04:59:37;96005.69;;;-2.31;100.00
74708;BME280;63360;50.104;8.074;2023-01-19T05:02:03;96010.75;;;-2.36;100.00
74708;BME280;63360;50.104;8.074;2023-01-19T05:04:30;96004.66;;;-2.40;100.00
74708;BME280;63360;50.104;8.074;2023-01-19T05:06:56;96003.38;;;-2.38;100.00
74708;BME280;63360;50.104;8.074;2023-01-19T05:09:23;96005.66;;;-2.36;100.00
74708;BME280;63360;50.104;8.074;2023-01-19T05:11:51;96005.16;;;-2.38;100.00
74708;BME280;63360;50.104;8.074;2023-01-19T05:14:17;95993.69;;;-2.41;100.00
74708;BME280;63360;50.104;8.074;2023-01-19T05:16:44;96019.47;;;-2.12;100.00
74708;BME280;63360;50.104;8.074;2023-01-19T05:19:10;96006.47;;;-2.21;100.00
74708;BME280;63360;50.104;8.074;2023-01-19T05:21:36;96008.50;;;-2.13;100.00
74708;BME280;63360;50.104;8.074;2023-01-19T05:24:03;96016.94;;;-2.12;100.00
74708;BME280;63360;50.104;8.074;2023-01-19T05:26:29;95997.59;;;-2.18;100.00
74708;BME280;63360;50.104;8.074;2023-01-19T05:28:56;96013.66;;;-2.03;100.00
74708;BME280;63360;50.104;8.074;2023-01-19T05:31:22;96011.34;;;-2.04;100.00
74708;BME280;63360;50.104;8.074;2023-01-19T05:33:49;96014.66;;;-1.89;100.00
74708;BME280;63360;50.104;8.074;2023-01-19T05:36:15;96012.16;;;-1.78;100.00
74708;BME280;63360;50.104;8.074;2023-01-19T05:38:41;96015.19;;;-1.81;100.00
74708;BME280;63360;50.104;8.074;2023-01-19T05:41:08;96026.66;;;-1.74;100.00
74708;BME280;63360;50.104;8.074;2023-01-19T05:43:34;96029.72;;;-1.62;100.00
74708;BME280;63360;50.104;8.074;2023-01-19T05:46:02;96009.34;;;-1.72;100.00
74708;BME280;63360;50.104;8.074;2023-01-19T05:48:30;96022.84;;;-1.51;100.00
74708;BME280;63360;50.104;8.074;2023-01-19T05:50:57;96021.81;;;-1.40;100.00
74708;BME280;63360;50.104;8.074;2023-01-19T05:53:24;96027.94;;;-1.41;100.00
74708;BME280;63360;50.104;8.074;2023-01-19T05:55:51;96023.38;;;-1.49;100.00
74708;BME280;63360;50.104;8.074;2023-01-19T05:58:17;96035.34;;;-1.50;100.00
74708;BME280;63360;50.104;8.074;2023-01-19T06:00:43;96038.91;;;-1.46;100.00
74708;BME280;63360;50.104;8.074;2023-01-19T06:03:10;96031.75;;;-1.44;100.00
74708;BME280;63360;50.104;8.074;2023-01-19T06:05:37;96049.09;;;-1.20;100.00
74708;BME280;63360;50.104;8.074;2023-01-19T06:08:04;96047.31;;;-1.20;100.00
74708;BME280;63360;50.104;8.074;2023-01-19T06:10:31;96051.41;;;-1.29;100.00
74708;BME280;63360;50.104;8.074;2023-01-19T06:12:57;96048.34;;;-1.26;100.00
74708;BME280;63360;50.104;8.074;2023-01-19T06:15:24;96045.00;;;-1.27;100.00
74708;BME280;63360;50.104;8.074;2023-01-19T06:17:51;96058.03;;;-1.23;100.00
74708;BME280;63360;50.104;8.074;2023-01-19T06:20:17;96058.28;;;-1.30;100.00
74708;BME280;63360;50.104;8.074;2023-01-19T06:22:43;96057.78;;;-1.37;100.00
74708;BME280;63360;50.104;8.074;2023-01-19T06:25:10;96073.09;;;-1.37;100.00
74708;BME280;63360;50.104;8.074;2023-01-19T06:27:37;96060.34;;;-1.52;100.00
74708;BME280;63360;50.104;8.074;2023-01-19T06:30:05;96056.25;;;-1.53;100.00
74708;BME280;63360;50.104;8.074;2023-01-19T06:32:31;96061.34;;;-1.53;100.00
74708;BME280;63360;50.104;8.074;2023-01-19T06:34:58;96074.59;;;-1.51;100.00
74708;BME280;63360;50.104;8.074;2023-01-19T06:37:24;96077.66;;;-1.54;100.00
74708;BME280;63360;50.104;8.074;2023-01-19T06:39:52;96065.94;;;-1.60;100.00
74708;BME280;63360;50.104;8.074;2023-01-19T06:42:18;96072.31;;;-1.47;100.00
74708;BME280;63360;50.104;8.074;2023-01-19T06:44:45;96061.84;;;-1.56;100.00
74708;BME280;63360;50.104;8.074;2023-01-19T06:47:14;96069.75;;;-1.47;100.00
74708;BME280;63360;50.104;8.074;2023-01-19T06:49:42;96059.31;;;-1.56;100.00
74708;BME280;63360;50.104;8.074;2023-01-19T06:52:09;96078.94;;;-1.46;100.00
74708;BME280;63360;50.104;8.074;2023-01-19T06:54:36;96079.69;;;-1.56;100.00
74708;BME280;63360;50.104;8.074;2023-01-19T06:57:03;96073.31;;;-1.53;100.00
74708;BME280;63360;50.104;8.074;2023-01-19T06:59:30;96074.34;;;-1.54;100.00
74708;BME280;63360;50.104;8.074;2023-01-19T07:01:56;96074.09;;;-1.58;100.00
74708;BME280;63360;50.104;8.074;2023-01-19T07:04:24;96091.19;;;-1.53;100.00
74708;BME280;63360;50.104;8.074;2023-01-19T07:06:50;96085.84;;;-1.52;100.00
74708;BME280;63360;50.104;8.074;2023-01-19T07:09:17;96085.81;;;-1.62;100.00
74708;BME280;63360;50.104;8.074;2023-01-19T07:11:46;96094.72;;;-1.59;100.00
74708;BME280;63360;50.104;8.074;2023-01-19T07:14:13;96095.00;;;-1.66;100.00
74708;BME280;63360;50.104;8.074;2023-01-19T07:16:40;96091.41;;;-1.65;100.00
74708;BME280;63360;50.104;8.074;2023-01-19T07:19:08;96091.94;;;-1.68;100.00
74708;BME280;63360;50.104;8.074;2023-01-19T07:21:36;96094.22;;;-1.71;100.00
74708;BME280;63360;50.104;8.074;2023-01-19T07:24:02;96077.13;;;-1.81;100.00
74708;BME280;63360;50.104;8.074;2023-01-19T07:26:29;96087.56;;;-1.72;100.00
74708;BME280;63360;50.104;8.074;2023-01-19T07:28:56;96081.19;;;-1.80;100.00
74708;BME280;63360;50.104;8.074;2023-01-19T07:31:22;96074.84;;;-1.77;100.00
74708;BME280;63360;50.104;8.074;2023-01-19T07:33:48;96073.56;;;-1.80;100.00
74708;BME280;63360;50.104;8.074;2023-01-19T07:36:15;96080.41;;;-1.86;100.00
74708;BME280;63360;50.104;8.074;2023-01-19T07:38:41;96087.81;;;-1.89;100.00
74708;BME280;63360;50.104;8.074;2023-01-19T07:41:08;96087.06;;;-1.90;100.00
74708;BME280;63360;50.104;8.074;2023-01-19T07:43:35;96078.84;;;-2.02;100.00
74708;BME280;63360;50.104;8.074;2023-01-19T07:46:05;96077.88;;;-1.91;100.00
74708;BME280;63360;50.104;8.074;2023-01-19T07:48:33;96088.56;;;-1.89;100.00
74708;BME280;63360;50.104;8.074;2023-01-19T07:51:01;96087.56;;;-1.88;100.00
74708;BME280;63360;50.104;8.074;2023-01-19T07:53:30;96075.03;;;-1.94;100.00
74708;BME280;63360;50.104;8.074;2023-01-19T07:55:57;96077.84;;;-1.96;100.00
74708;BME280;63360;50.104;8.074;2023-01-19T07:58:24;96082.47;;;-1.88;100.00
74708;BME280;63360;50.104;8.074;2023-01-19T08:00:51;96087.84;;;-1.84;100.00
74708;BME280;63360;50.104;8.074;2023-01-19T08:03:18;96088.34;;;-1.87;100.00
74708;BME280;63360;50.104;8.074;2023-01-19T08:05:49;96091.88;;;-1.88;100.00
74708;BME280;63360;50.104;8.074;2023-01-19T08:08:15;96105.69;;;-1.79;100.00
74708;BME280;63360;50.104;8.074;2023-01-19T08:10:42;96110.78;;;-1.74;100.00
74708;BME280;63360;50.104;8.074;2023-01-19T08:13:08;96098.81;;;-1.78;100.00
74708;BME280;63360;50.104;8.074;2023-01-19T08:15:34;96112.56;;;-1.69;100.00
74708;BME280;63360;50.104;8.074;2023-01-19T08:18:02;96117.94;;;-1.61;100.00
74708;BME280;63360;50.104;8.074;2023-01-19T08:20:30;96113.13;;;-1.52;100.00
74708;BME280;63360;50.104;8.074;2023-01-19T08:22:57;96102.91;;;-1.47;100.00
74708;BME280;63360;50.104;8.074;2023-01-19T08:25:40;96108.53;;;-1.45;100.00
74708;BME280;63360;50.104;8.074;2023-01-19T08:28:11;96114.16;;;-1.33;100.00
74708;BME280;63360;50.104;8.074;2023-01-19T08:30:39;96121.53;;;-1.22;100.00
74708;BME280;63360;50.104;8.074;2023-01-19T08:33:06;96115.69;;;-1.02;100.00
74708;BME280;63360;50.104;8.074;2023-01-19T08:35:35;96123.06;;;-0.80;100.00
74708;BME280;63360;50.104;8.074;2023-01-19T08:38:06;96121.00;;;-0.73;100.00
74708;BME280;63360;50.104;8.074;2023-01-19T08:40:36;96128.84;;;-0.44;100.00
74708;BME280;63360;50.104;8.074;2023-01-19T08:43:10;96109.44;;;-0.45;100.00
74708;BME280;63360;50.104;8.074;2023-01-19T08:45:44;96129.97;;;-0.02;98.76
74708;BME280;63360;50.104;8.074;2023-01-19T08:48:15;96126.41;;;-0.06;99.01
74708;BME280;63360;50.104;8.074;2023-01-19T08:50:44;96139.41;;;0.03;97.61
74708;BME280;63360;50.104;8.074;2023-01-19T08:53:11;96135.59;;;-0.05;98.44
74708;BME280;63360;50.104;8.074;2023-01-19T08:55:37;96143.00;;;0.02;95.83
74708;BME280;63360;50.104;8.074;2023-01-19T08:58:05;96142.22;;;0.02;96.78
74708;BME280;63360;50.104;8.074;2023-01-19T09:00:32;96138.09;;;0.06;96.18
74708;BME280;63360;50.104;8.074;2023-01-19T09:03:00;96133.00;;;0.06;96.42
74708;BME280;63360;50.104;8.074;2023-01-19T09:05:32;96130.22;;;0.02;94.29
74708;BME280;63360;50.104;8.074;2023-01-19T09:08:02;96138.09;;;0.11;95.18
74708;BME280;63360;50.104;8.074;2023-01-19T09:10:29;96135.81;;;0.04;95.68
74708;BME280;63360;50.104;8.074;2023-01-19T09:13:02;96130.47;;;0.00;96.79
74708;BME280;63360;50.104;8.074;2023-01-19T09:15:33;96141.69;;;0.10;96.23
74708;BME280;63360;50.104;8.074;2023-01-19T09:18:04;96145.56;;;0.02;99.81
74708;BME280;63360;50.104;8.074;2023-01-19T09:20:31;96147.38;;;-0.04;100.00
74708;BME280;63360;50.104;8.074;2023-01-19T09:22:59;96142.25;;;-0.04;100.00
74708;BME280;63360;50.104;8.074;2023-01-19T09:25:26;96151.22;;;-0.11;100.00
74708;BME280;63360;50.104;8.074;2023-01-19T09:27:52;96136.63;;;-0.11;100.00
74708;BME280;63360;50.104;8.074;2023-01-19T09:30:18;96138.47;;;-0.21;100.00
74708;BME280;63360;50.104;8.074;2023-01-19T09:32:45;96153.81;;;-0.16;100.00
74708;BME280;63360;50.104;8.074;2023-01-19T09:35:11;96144.84;;;-0.09;100.00
74708;BME280;63360;50.104;8.074;2023-01-19T09:37:38;96149.41;;;-0.11;100.00
74708;BME280;63360;50.104;8.074;2023-01-19T09:40:05;96141.00;;;-0.11;100.00
74708;BME280;63360;50.104;8.074;2023-01-19T09:42:41;96156.56;;;-0.08;100.00
74708;BME280;63360;50.104;8.074;2023-01-19T09:50:58;96155.09;;;-0.24;100.00
74708;BME280;63360;50.104;8.074;2023-01-19T09:56:01;96153.56;;;-0.20;100.00
74708;BME280;63360;50.104;8.074;2023-01-19T09:58:27;96164.03;;;-0.21;100.00
74708;BME280;63360;50.104;8.074;2023-01-19T10:01:03;96160.72;;;-0.22;100.00
74708;BME280;63360;50.104;8.074;2023-01-19T10:03:35;96151.53;;;-0.28;100.00
74708;BME280;63360;50.104;8.074;2023-01-19T10:06:08;96166.06;;;-0.23;100.00
74708;BME280;63360;50.104;8.074;2023-01-19T10:11:35;96160.72;;;-0.22;100.00
74708;BME280;63360;50.104;8.074;2023-01-19T10:14:30;96156.38;;;-0.26;100.00
74708;BME280;63360;50.104;8.074;2023-01-19T10:19:50;96166.56;;;-0.21;100.00
74708;BME280;63360;50.104;8.074;2023-01-19T10:22:21;96165.03;;;-0.17;100.00
74708;BME280;63360;50.104;8.074;2023-01-19T10:24:52;96159.19;;;-0.28;100.00
74708;BME280;63360;50.104;8.074;2023-01-19T10:27:23;96157.94;;;-0.30;100.00
74708;BME280;63360;50.104;8.074;2023-01-19T10:29:51;96166.84;;;-0.23;100.00
74708;BME280;63360;50.104;8.074;2023-01-19T10:32:26;96158.69;;;-0.30;100.00
74708;BME280;63360;50.104;8.074;2023-01-19T10:34:56;96161.75;;;-0.28;100.00
74708;BME280;63360;50.104;8.074;2023-01-19T10:37:31;96166.56;;;-0.11;100.00
74708;BME280;63360;50.104;8.074;2023-01-19T10:40:12;96169.13;;;-0.11;100.00
74708;BME280;63360;50.104;8.074;2023-01-19T10:42:45;96157.84;;;-0.05;100.00
74708;BME280;63360;50.104;8.074;2023-01-19T10:45:18;96155.03;;;-0.04;100.00
74708;BME280;63360;50.104;8.074;2023-01-19T10:47:46;96159.63;;;-0.01;100.00
74708;BME280;63360;50.104;8.074;2023-01-19T10:50:39;96159.41;;;-0.14;100.00
74708;BME280;63360;50.104;8.074;2023-01-19T10:53:18;96160.94;;;-0.13;100.00
74708;BME280;63360;50.104;8.074;2023-01-19T10:55:45;96160.16;;;-0.09;100.00
74708;BME280;63360;50.104;8.074;2023-01-19T10:58:29;96160.22;;;-0.19;100.00
74708;BME280;63360;50.104;8.074;2023-01-19T11:01:21;96155.84;;;-0.18;100.00
74708;BME280;63360;50.104;8.074;2023-01-19T11:03:49;96158.63;;;-0.10;100.00
74708;BME280;63360;50.104;8.074;2023-01-19T11:06:27;96147.19;;;-0.22;100.00
74708;BME280;63360;50.104;8.074;2023-01-19T11:09:16;96155.06;;;-0.09;100.00
74708;BME280;63360;50.104;8.074;2023-01-19T11:11:45;96156.31;;;-0.06;100.00
74708;BME280;63360;50.104;8.074;2023-01-19T11:14:13;96158.63;;;-0.10;100.00
74708;BME280;63360;50.104;8.074;2023-01-19T11:16:46;96169.84;;;-0.01;100.00
74708;BME280;63360;50.104;8.074;2023-01-19T11:19:18;96159.81;;;0.08;100.00
74708;BME280;63360;50.104;8.074;2023-01-19T11:21:45;96147.84;;;-0.02;100.00
74708;BME280;63360;50.104;8.074;2023-01-19T11:24:12;96153.75;;;-0.01;100.00
74708;BME280;63360;50.104;8.074;2023-01-19T11:26:47;96155.47;;;0.09;100.00
74708;BME280;63360;50.104;8.074;2023-01-19T11:29:21;96158.75;;;0.19;100.00
74708;BME280;63360;50.104;8.074;2023-01-19T11:31:49;96153.16;;;0.17;100.00
74708;BME280;63360;50.104;8.074;2023-01-19T11:34:25;96155.94;;;0.26;100.00
74708;BME280;63360;50.104;8.074;2023-01-19T11:36:56;96147.25;;;0.17;100.00
74708;BME280;63360;50.104;8.074;2023-01-19T11:39:25;96155.41;;;0.29;100.00
74708;BME280;63360;50.104;8.074;2023-01-19T11:42:01;96149.03;;;0.26;100.00
74708;BME280;63360;50.104;8.074;2023-01-19T11:44:30;96151.31;;;0.28;100.00
74708;BME280;63360;50.104;8.074;2023-01-19T11:47:00;96147.22;;;0.32;100.00
74708;BME280;63360;50.104;8.074;2023-01-19T11:49:46;96158.47;;;0.31;100.00
74708;BME280;63360;50.104;8.074;2023-01-19T11:55:02;96162.72;;;0.45;100.00
74708;BME280;63360;50.104;8.074;2023-01-19T11:57:30;96154.53;;;0.43;100.00
74708;BME280;63360;50.104;8.074;2023-01-19T11:59:58;96146.41;;;0.36;100.00
74708;BME280;63360;50.104;8.074;2023-01-19T12:02:42;96159.69;;;0.38;100.00
74708;BME280;63360;50.104;8.074;2023-01-19T12:05:14;96156.34;;;0.43;100.00
74708;BME280;63360;50.104;8.074;2023-01-19T12:07:42;96157.09;;;0.43;100.00
74708;BME280;63360;50.104;8.074;2023-01-19T12:10:23;96161.47;;;0.38;100.00
74708;BME280;63360;50.104;8.074;2023-01-19T12:12:51;96160.50;;;0.34;100.00
74708;BME280;63360;50.104;8.074;2023-01-19T12:15:42;96154.16;;;0.21;100.00
74708;BME280;63360;50.104;8.074;2023-01-19T12:18:24;96142.66;;;0.19;100.00
74708;BME280;63360;50.104;8.074;2023-01-19T12:20:54;96135.00;;;0.14;100.00
74708;BME280;63360;50.104;8.074;2023-01-19T12:23:36;96150.81;;;0.26;100.00
74708;BME280;63360;50.104;8.074;2023-01-19T12:28:50;96142.66;;;0.14;100.00
74708;BME280;63360;50.104;8.074;2023-01-19T12:31:19;96143.19;;;0.16;100.00
74708;BME280;63360;50.104;8.074;2023-01-19T12:33:47;96147.75;;;0.24;100.00
74708;BME280;63360;50.104;8.074;2023-01-19T12:39:16;96139.03;;;0.25;100.00
74708;BME280;63360;50.104;8.074;2023-01-19T12:41:43;96145.38;;;0.32;100.00
74708;BME280;63360;50.104;8.074;2023-01-19T12:49:39;96142.59;;;0.34;100.00
74708;BME280;63360;50.104;8.074;2023-01-19T12:57:27;96154.34;;;0.30;100.00
74708;BME280;63360;50.104;8.074;2023-01-19T13:00:07;96148.72;;;0.33;100.00
74708;BME280;63360;50.104;8.074;2023-01-19T13:02:53;96146.91;;;0.38;100.00
74708;BME280;63360;50.104;8.074;2023-01-19T13:15:50;96139.59;;;0.17;100.00
74708;BME280;63360;50.104;8.074;2023-01-19T13:18:22;96140.13;;;0.14;100.00
74708;BME280;63360;50.104;8.074;2023-01-19T13:20:53;96153.09;;;0.27;100.00
74708;BME280;63360;50.104;8.074;2023-01-19T13:23:24;96139.09;;;0.15;100.00
74708;BME280;63360;50.104;8.074;2023-01-19T13:26:01;96155.94;;;0.26;100.00
74708;BME280;63360;50.104;8.074;2023-01-19T13:28:38;96160.28;;;0.20;100.00
74708;BME280;63360;50.104;8.074;2023-01-19T13:31:06;96143.47;;;0.09;100.00
74708;BME280;63360;50.104;8.074;2023-01-19T13:33:38;96152.16;;;0.13;100.00
74708;BME280;63360;50.104;8.074;2023-01-19T13:36:17;96152.63;;;0.20;100.00
74708;BME280;63360;50.104;8.074;2023-01-19T13:38:47;96143.94;;;0.16;100.00
74708;BME280;63360;50.104;8.074;2023-01-19T13:41:19;96159.03;;;0.18;100.00
74708;BME280;63360;50.104;8.074;2023-01-19T13:43:50;96151.66;;;0.06;100.00
74708;BME280;63360;50.104;8.074;2023-01-19T13:46:19;96163.41;;;0.12;100.00
74708;BME280;63360;50.104;8.074;2023-01-19T13:48:54;96161.13;;;0.06;100.00
74708;BME280;63360;50.104;8.074;2023-01-19T13:51:21;96159.31;;;0.11;100.00
74708;BME280;63360;50.104;8.074;2023-01-19T13:53:55;96165.69;;;0.14;100.00
74708;BME280;63360;50.104;8.074;2023-01-19T13:56:26;96156.28;;;0.04;100.00
74708;BME280;63360;50.104;8.074;2023-01-19T13:59:10;96176.66;;;0.19;100.00
74708;BME280;63360;50.104;8.074;2023-01-19T14:01:41;96176.94;;;0.18;100.00
74708;BME280;63360;50.104;8.074;2023-01-19T14:04:33;96170.06;;;0.03;100.00